Time;durP1;ratioP1;P1;durP2;ratioP2;P2;SDS_P1;SDS_P2;PMS_P1;PMS_P2;Temp;Humidity;BMP_temperature;BMP_pressure;BME280_temperature;BME280_humidity;BME280_pressure;Samples;Min_cycle;Max_cycle;Signal;HPM_P1;HPM_P2
2023/05/30 00:00:55;;;;;;;;;;;12.80;99.90;;;;;;7332039;19;110113;-66
2023/05/30 00:03:24;;;;;;;;;;;12.70;99.90;;;;;;7325870;19;110652;-64
2023/05/30 00:05:52;;;;;;;;;;;12.70;99.90;;;;;;7324773;19;111193;-64
2023/05/30 00:08:19;;;;;;;;;;;12.70;99.90;;;;;;7326004;19;109511;-63
2023/05/30 00:10:46;;;;;;;;;;;12.70;99.90;;;;;;7326589;19;113296;-62
2023/05/30 00:13:13;;;;;;;;;;;12.60;99.90;;;;;;7326847;19;111056;-62
2023/05/30 00:15:40;;;;;;;;;;;12.70;99.90;;;;;;7323523;19;111279;-63
2023/05/30 00:18:08;;;;;;;;;;;12.60;99.90;;;;;;7326542;19;111634;-63
2023/05/30 00:20:35;;;;;;;;;;;12.60;99.90;;;;;;7322758;19;113849;-63
2023/05/30 00:23:03;;;;;;;;;;;12.60;99.90;;;;;;7331585;19;109819;-63
2023/05/30 00:25:32;;;;;;;;;;;12.60;99.90;;;;;;7320378;19;111662;-63
2023/05/30 00:28:00;;;;;;;;;;;12.60;99.90;;;;;;7325444;19;109948;-63
2023/05/30 00:30:27;;;;;;;;;;;12.50;99.90;;;;;;7318257;19;112839;-63
2023/05/30 00:32:54;;;;;;;;;;;12.60;99.90;;;;;;7326363;19;111366;-63
2023/05/30 00:35:21;;;;;;;;;;;12.50;99.90;;;;;;7326724;19;110034;-63
2023/05/30 00:37:48;;;;;;;;;;;12.40;99.90;;;;;;7328437;19;111408;-63
2023/05/30 00:40:16;;;;;;;;;;;12.40;99.90;;;;;;7321177;19;110233;-63
2023/05/30 00:42:43;;;;;;;;;;;12.30;99.90;;;;;;7334291;19;110169;-63
2023/05/30 00:45:10;;;;;;;;;;;12.30;99.90;;;;;;7320702;19;110198;-63
2023/05/30 00:47:38;;;;;;;;;;;12.20;99.90;;;;;;7322857;19;110393;-63
2023/05/30 00:50:06;;;;;;;;;;;12.20;99.90;;;;;;7326661;19;109388;-63
2023/05/30 00:52:34;;;;;;;;;;;12.20;99.90;;;;;;7326638;19;110362;-63
2023/05/30 00:55:02;;;;;;;;;;;12.10;99.90;;;;;;7320674;19;111561;-62
2023/05/30 00:57:33;;;;;;;;;;;12.10;99.90;;;;;;7328734;19;110146;-62
2023/05/30 01:00:04;;;;;;;;;;;12.00;99.90;;;;;;7329293;19;111269;-62
2023/05/30 01:02:35;;;;;;;;;;;12.00;99.90;;;;;;7326209;19;111704;-62
2023/05/30 01:05:02;;;;;;;;;;;12.00;99.90;;;;;;7333124;19;110577;-62
2023/05/30 01:07:29;;;;;;;;;;;12.00;99.90;;;;;;7327049;19;109573;-62
2023/05/30 01:09:57;;;;;;;;;;;11.90;99.90;;;;;;7326565;19;110055;-62
2023/05/30 01:12:30;;;;;;;;;;;11.90;99.90;;;;;;7324994;19;109987;-62
2023/05/30 01:15:00;;;;;;;;;;;11.90;99.90;;;;;;7326827;19;110022;-62
2023/05/30 01:17:38;;;;;;;;;;;11.90;99.90;;;;;;7327434;19;110041;-62
2023/05/30 01:20:10;;;;;;;;;;;11.90;99.90;;;;;;7322057;19;110276;-62
2023/05/30 01:22:49;;;;;;;;;;;11.90;99.90;;;;;;7325986;19;111735;-62
2023/05/30 01:25:27;;;;;;;;;;;11.90;99.90;;;;;;7326480;19;110265;-62
2023/05/30 01:28:09;;;;;;;;;;;11.80;99.90;;;;;;7332445;19;110120;-63
2023/05/30 01:30:55;;;;;;;;;;;11.60;99.90;;;;;;7325860;19;110386;-62
2023/05/30 01:33:24;;;;;;;;;;;11.60;99.90;;;;;;7322149;19;109690;-62
2023/05/30 01:35:51;;;;;;;;;;;11.60;99.90;;;;;;7327265;19;110616;-62
2023/05/30 01:38:18;;;;;;;;;;;11.60;99.90;;;;;;7327676;19;109603;-63
2023/05/30 01:40:50;;;;;;;;;;;11.60;99.90;;;;;;7325503;19;130513;-63
2023/05/30 01:43:52;;;;;;;;;;;11.70;99.90;;;;;;7359911;19;110526;-63
2023/05/30 01:46:25;;;;;;;;;;;11.50;99.90;;;;;;7359456;19;109520;-63
2023/05/30 01:48:57;;;;;;;;;;;11.50;99.90;;;;;;7361243;19;109986;-63
2023/05/30 01:51:40;;;;;;;;;;;11.50;99.90;;;;;;7357820;19;110143;-63
2023/05/30 01:54:08;;;;;;;;;;;11.50;99.90;;;;;;7359160;19;110948;-63
2023/05/30 01:56:36;;;;;;;;;;;11.50;99.90;;;;;;7356933;19;109828;-63
2023/05/30 01:59:05;;;;;;;;;;;11.50;99.90;;;;;;7357871;19;110784;-63
2023/05/30 02:01:33;;;;;;;;;;;11.40;99.90;;;;;;7358142;19;110018;-63
2023/05/30 02:04:00;;;;;;;;;;;11.40;99.90;;;;;;7363332;19;109419;-63
2023/05/30 02:06:27;;;;;;;;;;;11.40;99.90;;;;;;7364127;19;110175;-63
2023/05/30 02:08:54;;;;;;;;;;;11.30;99.90;;;;;;7356741;19;112266;-63
2023/05/30 02:11:21;;;;;;;;;;;11.30;99.90;;;;;;7357433;19;111804;-65
2023/05/30 02:13:48;;;;;;;;;;;11.30;99.90;;;;;;7363405;19;111087;-63
2023/05/30 02:16:17;;;;;;;;;;;11.30;99.90;;;;;;7363250;19;110069;-63
2023/05/30 02:18:45;;;;;;;;;;;11.20;99.90;;;;;;7356175;19;113152;-64
2023/05/30 02:21:12;;;;;;;;;;;11.20;99.90;;;;;;7362426;19;110537;-63
2023/05/30 02:23:39;;;;;;;;;;;11.20;99.90;;;;;;7355023;19;111593;-63
2023/05/30 02:26:06;;;;;;;;;;;11.20;99.90;;;;;;7362830;19;110315;-63
2023/05/30 02:28:34;;;;;;;;;;;11.10;99.90;;;;;;7361858;19;110130;-63
2023/05/30 02:31:01;;;;;;;;;;;11.10;99.90;;;;;;7362666;19;110115;-63
2023/05/30 02:33:28;;;;;;;;;;;11.10;99.90;;;;;;7363018;19;109581;-63
2023/05/30 02:35:55;;;;;;;;;;;11.10;99.90;;;;;;7362585;19;110154;-63
2023/05/30 02:38:22;;;;;;;;;;;11.10;99.90;;;;;;7362868;19;110072;-63
2023/05/30 02:40:50;;;;;;;;;;;11.00;99.90;;;;;;7364098;19;110775;-63
2023/05/30 02:43:18;;;;;;;;;;;11.00;99.90;;;;;;7354375;19;111595;-63
2023/05/30 02:45:47;;;;;;;;;;;10.90;99.90;;;;;;7361150;19;110773;-63
2023/05/30 02:48:14;;;;;;;;;;;10.90;99.90;;;;;;7368592;19;110927;-63
2023/05/30 02:50:41;;;;;;;;;;;10.90;99.90;;;;;;7362858;19;110976;-63
2023/05/30 02:53:08;;;;;;;;;;;10.90;99.90;;;;;;7349630;19;110460;-63
2023/05/30 02:55:36;;;;;;;;;;;10.90;99.90;;;;;;7338960;19;109427;-63
2023/05/30 02:58:03;;;;;;;;;;;10.90;99.90;;;;;;7327796;19;110311;-65
2023/05/30 03:00:30;;;;;;;;;;;10.80;99.90;;;;;;7337392;19;109537;-65
2023/05/30 03:02:57;;;;;;;;;;;10.80;99.90;;;;;;7333863;19;109638;-65
2023/05/30 03:05:25;;;;;;;;;;;10.80;99.90;;;;;;7336022;19;110197;-64
2023/05/30 03:07:52;;;;;;;;;;;10.80;99.90;;;;;;7333341;19;109668;-65
2023/05/30 03:10:19;;;;;;;;;;;10.80;99.90;;;;;;7339326;19;110098;-64
2023/05/30 03:12:46;;;;;;;;;;;10.80;99.90;;;;;;7334464;19;109894;-65
2023/05/30 03:15:13;;;;;;;;;;;10.70;99.90;;;;;;7332481;19;109961;-65
2023/05/30 03:17:41;;;;;;;;;;;10.70;99.90;;;;;;7332398;19;113731;-64
2023/05/30 03:20:08;;;;;;;;;;;10.60;99.90;;;;;;7335795;19;110731;-65
2023/05/30 03:22:35;;;;;;;;;;;10.60;99.90;;;;;;7333821;19;109959;-65
2023/05/30 03:25:02;;;;;;;;;;;10.70;99.90;;;;;;7333640;19;110980;-65
2023/05/30 03:27:30;;;;;;;;;;;10.70;99.90;;;;;;7334487;19;111910;-65
2023/05/30 03:29:57;;;;;;;;;;;10.60;99.90;;;;;;7326480;19;110813;-64
2023/05/30 03:32:24;;;;;;;;;;;10.60;99.90;;;;;;7339704;19;111133;-64
2023/05/30 03:34:51;;;;;;;;;;;10.60;99.90;;;;;;7332022;19;110805;-65
2023/05/30 03:37:18;;;;;;;;;;;10.60;99.90;;;;;;7335869;19;109715;-65
2023/05/30 03:39:45;;;;;;;;;;;10.60;99.90;;;;;;7336311;19;109607;-64
2023/05/30 03:42:12;;;;;;;;;;;10.60;99.90;;;;;;7336486;19;110124;-65
2023/05/30 03:44:39;;;;;;;;;;;10.50;99.90;;;;;;7331530;19;110285;-65
2023/05/30 03:47:06;;;;;;;;;;;10.60;99.90;;;;;;7333991;19;111558;-65
2023/05/30 03:49:34;;;;;;;;;;;10.50;99.90;;;;;;7332361;19;110132;-65
2023/05/30 03:52:01;;;;;;;;;;;10.50;99.90;;;;;;7330904;19;110467;-68
2023/05/30 03:54:29;;;;;;;;;;;10.50;99.90;;;;;;7339467;19;109930;-65
2023/05/30 03:56:56;;;;;;;;;;;10.50;99.90;;;;;;7334681;19;110413;-69
2023/05/30 03:59:23;;;;;;;;;;;10.50;99.90;;;;;;7335201;19;110477;-67
2023/05/30 04:01:50;;;;;;;;;;;10.50;99.90;;;;;;7332526;19;110159;-66
2023/05/30 04:04:17;;;;;;;;;;;10.60;99.90;;;;;;7334179;19;111370;-66
2023/05/30 04:06:45;;;;;;;;;;;10.60;99.90;;;;;;7335224;19;111358;-73
2023/05/30 04:09:13;;;;;;;;;;;10.70;99.90;;;;;;7333549;19;112475;-73
2023/05/30 04:11:40;;;;;;;;;;;10.60;99.90;;;;;;7336475;19;109931;-68
2023/05/30 04:14:07;;;;;;;;;;;10.60;99.90;;;;;;7340387;19;109719;-67
2023/05/30 04:16:34;;;;;;;;;;;10.60;99.90;;;;;;7337013;19;110288;-72
2023/05/30 04:19:01;;;;;;;;;;;10.70;99.90;;;;;;7335604;19;110421;-71
2023/05/30 04:21:28;;;;;;;;;;;10.70;99.90;;;;;;7332549;19;109885;-69
2023/05/30 04:23:56;;;;;;;;;;;10.70;99.90;;;;;;7330648;19;111696;-68
2023/05/30 04:26:25;;;;;;;;;;;10.70;99.90;;;;;;7330690;19;111256;-69
2023/05/30 04:28:56;;;;;;;;;;;10.70;99.90;;;;;;7334260;19;109526;-65
2023/05/30 04:31:24;;;;;;;;;;;10.70;99.90;;;;;;7327378;19;111108;-72
2023/05/30 04:33:53;;;;;;;;;;;10.80;99.90;;;;;;7331304;19;109946;-67
2023/05/30 04:36:20;;;;;;;;;;;10.80;99.90;;;;;;7340111;19;110070;-73
2023/05/30 04:38:52;;;;;;;;;;;10.80;99.90;;;;;;7334186;19;110952;-68
2023/05/30 04:41:20;;;;;;;;;;;10.90;99.90;;;;;;7331354;19;113668;-66
2023/05/30 04:43:57;;;;;;;;;;;10.90;99.90;;;;;;7331861;19;112155;-65
2023/05/30 04:46:27;;;;;;;;;;;10.90;99.90;;;;;;7329316;19;110059;-66
2023/05/30 04:49:00;;;;;;;;;;;10.90;99.90;;;;;;7334875;19;110098;-66
2023/05/30 04:51:28;;;;;;;;;;;11.00;99.90;;;;;;7330720;19;110168;-65
2023/05/30 04:53:56;;;;;;;;;;;11.00;99.90;;;;;;7331613;19;109918;-65
2023/05/30 04:56:23;;;;;;;;;;;11.00;99.90;;;;;;7334714;19;109808;-65
2023/05/30 04:58:54;;;;;;;;;;;11.00;99.90;;;;;;7334110;19;111764;-65
2023/05/30 05:01:23;;;;;;;;;;;11.10;99.90;;;;;;7334275;19;109688;-65
2023/05/30 05:03:51;;;;;;;;;;;11.20;99.90;;;;;;7328456;19;111025;-65
2023/05/30 05:06:18;;;;;;;;;;;11.30;99.90;;;;;;7330596;19;110195;-65
2023/05/30 05:08:45;;;;;;;;;;;11.30;99.90;;;;;;7327697;19;111585;-65
2023/05/30 05:11:13;;;;;;;;;;;11.30;99.90;;;;;;7329785;19;110791;-65
2023/05/30 05:13:40;;;;;;;;;;;11.40;99.90;;;;;;7330634;19;111638;-65
2023/05/30 05:16:07;;;;;;;;;;;11.40;99.90;;;;;;7330473;19;109687;-65
2023/05/30 05:18:34;;;;;;;;;;;11.40;99.90;;;;;;7327945;19;112484;-65
2023/05/30 05:21:01;;;;;;;;;;;11.60;99.90;;;;;;7336514;19;110202;-65
2023/05/30 05:23:29;;;;;;;;;;;11.70;99.90;;;;;;7328700;19;110663;-65
2023/05/30 05:25:56;;;;;;;;;;;11.80;99.90;;;;;;7329647;19;110292;-65
2023/05/30 05:28:23;;;;;;;;;;;11.80;99.90;;;;;;7327487;19;110325;-65
2023/05/30 05:30:51;;;;;;;;;;;11.90;99.90;;;;;;7328699;19;111747;-65
2023/05/30 05:33:18;;;;;;;;;;;12.00;99.90;;;;;;7326559;19;110232;-65
2023/05/30 05:35:48;;;;;;;;;;;12.00;99.90;;;;;;7329657;19;109560;-65
2023/05/30 05:38:19;;;;;;;;;;;12.00;99.90;;;;;;7327471;19;111097;-64
2023/05/30 05:40:47;;;;;;;;;;;12.10;99.90;;;;;;7331652;19;110404;-66
2023/05/30 05:43:14;;;;;;;;;;;12.20;99.90;;;;;;7330151;19;109893;-66
2023/05/30 05:45:41;;;;;;;;;;;12.20;99.90;;;;;;7328982;19;109504;-65
2023/05/30 05:48:08;;;;;;;;;;;12.20;99.90;;;;;;7325356;19;109924;-65
2023/05/30 05:50:36;;;;;;;;;;;12.10;99.90;;;;;;7333204;19;115285;-65
2023/05/30 05:53:03;;;;;;;;;;;12.10;99.90;;;;;;7325725;19;111357;-65
2023/05/30 05:55:30;;;;;;;;;;;12.10;99.90;;;;;;7333112;19;109468;-65
2023/05/30 05:57:57;;;;;;;;;;;12.20;99.90;;;;;;7327194;19;110660;-64
2023/05/30 06:00:25;;;;;;;;;;;12.20;99.90;;;;;;7328526;19;109641;-66
2023/05/30 06:02:52;;;;;;;;;;;12.30;99.90;;;;;;7335070;19;110313;-66
2023/05/30 06:05:20;;;;;;;;;;;12.30;99.90;;;;;;7326782;19;110056;-67
2023/05/30 06:07:47;;;;;;;;;;;12.40;99.90;;;;;;7328059;19;112293;-66
2023/05/30 06:10:14;;;;;;;;;;;12.40;99.90;;;;;;7324509;19;111531;-67
2023/05/30 06:12:43;;;;;;;;;;;12.40;99.90;;;;;;7330945;19;111126;-66
2023/05/30 06:15:12;;;;;;;;;;;12.50;99.90;;;;;;7327690;19;109517;-67
2023/05/30 06:17:39;;;;;;;;;;;12.40;99.90;;;;;;7330630;19;110412;-66
2023/05/30 06:20:07;;;;;;;;;;;12.60;99.90;;;;;;7326736;19;109869;-66
2023/05/30 06:22:34;;;;;;;;;;;12.60;99.90;;;;;;7331509;19;109357;-67
2023/05/30 06:25:01;;;;;;;;;;;12.70;99.90;;;;;;7333960;19;110524;-66
2023/05/30 06:27:28;;;;;;;;;;;12.90;99.90;;;;;;7329675;19;110459;-66
2023/05/30 06:29:55;;;;;;;;;;;13.10;99.90;;;;;;7335117;19;111184;-67
2023/05/30 06:32:23;;;;;;;;;;;13.10;99.90;;;;;;7334893;19;111558;-66
2023/05/30 06:34:50;;;;;;;;;;;13.20;99.90;;;;;;7343824;19;109712;-87
2023/05/30 06:37:17;;;;;;;;;;;13.30;99.90;;;;;;7337597;19;110160;-87
2023/05/30 06:39:44;;;;;;;;;;;13.30;99.90;;;;;;7342870;19;109849;-88
2023/05/30 06:42:11;;;;;;;;;;;13.20;99.90;;;;;;7337608;19;112857;-88
2023/05/30 06:44:38;;;;;;;;;;;13.10;99.90;;;;;;7340551;19;114003;-87
2023/05/30 06:47:05;;;;;;;;;;;13.10;99.90;;;;;;7340683;19;112059;-87
2023/05/30 06:49:33;;;;;;;;;;;13.10;99.90;;;;;;7339657;19;111836;-88
2023/05/30 06:52:00;;;;;;;;;;;13.20;99.90;;;;;;7339277;19;110836;-88
2023/05/30 06:54:27;;;;;;;;;;;13.30;99.90;;;;;;7338903;19;113650;-87
2023/05/30 06:56:54;;;;;;;;;;;13.30;99.90;;;;;;7341351;19;110651;-87
2023/05/30 06:59:21;;;;;;;;;;;13.30;99.90;;;;;;7339239;19;110583;-87
2023/05/30 07:01:48;;;;;;;;;;;13.20;99.90;;;;;;7339839;19;110188;-86
2023/05/30 07:04:16;;;;;;;;;;;13.20;99.90;;;;;;7336662;19;112863;-87
2023/05/30 07:06:43;;;;;;;;;;;13.30;99.90;;;;;;7340789;19;109809;-87
2023/05/30 07:09:10;;;;;;;;;;;13.40;99.90;;;;;;7348125;19;110207;-87
2023/05/30 07:11:37;;;;;;;;;;;13.40;99.90;;;;;;7343101;19;110012;-88
2023/05/30 07:14:05;;;;;;;;;;;13.30;99.90;;;;;;7339469;19;113054;-87
2023/05/30 07:16:32;;;;;;;;;;;13.20;99.90;;;;;;7340214;19;114768;-87
2023/05/30 07:19:00;;;;;;;;;;;13.30;99.90;;;;;;7339361;19;109886;-86
2023/05/30 07:21:38;;;;;;;;;;;13.40;99.90;;;;;;7338779;19;110344;-87
2023/05/30 07:24:06;;;;;;;;;;;13.50;99.90;;;;;;7336679;19;111112;-86
2023/05/30 07:26:33;;;;;;;;;;;13.60;99.90;;;;;;7342306;19;109689;-87
2023/05/30 07:29:01;;;;;;;;;;;13.70;99.90;;;;;;7337810;19;110108;-87
2023/05/30 07:31:28;;;;;;;;;;;13.80;99.90;;;;;;7344339;19;112816;-87
2023/05/30 07:33:56;;;;;;;;;;;13.90;99.90;;;;;;7338262;19;112795;-87
2023/05/30 07:36:23;;;;;;;;;;;14.00;99.90;;;;;;7339532;19;112139;-88
2023/05/30 07:38:51;;;;;;;;;;;14.00;99.90;;;;;;7340506;19;109884;-87
2023/05/30 07:41:17;;;;;;;;;;;14.00;99.90;;;;;;7339122;19;110320;-88
2023/05/30 07:43:45;;;;;;;;;;;14.00;99.90;;;;;;7342095;19;113629;-87
2023/05/30 07:46:12;;;;;;;;;;;13.90;99.90;;;;;;7339912;19;110148;-87
2023/05/30 07:48:42;;;;;;;;;;;13.90;99.90;;;;;;7340318;19;112952;-87
2023/05/30 07:51:09;;;;;;;;;;;13.90;99.90;;;;;;7338156;19;111433;-87
2023/05/30 07:53:36;;;;;;;;;;;14.00;99.90;;;;;;7346264;19;110532;-87
2023/05/30 07:56:05;;;;;;;;;;;14.10;99.90;;;;;;7339138;19;110824;-87
2023/05/30 07:58:32;;;;;;;;;;;14.10;99.90;;;;;;7340993;19;109336;-86
2023/05/30 08:01:00;;;;;;;;;;;14.20;99.90;;;;;;7337452;19;112860;-87
2023/05/30 08:03:27;;;;;;;;;;;14.10;99.90;;;;;;7338792;19;110910;-88
2023/05/30 08:05:54;;;;;;;;;;;14.10;99.90;;;;;;7341206;19;110380;-88
2023/05/30 08:08:21;;;;;;;;;;;14.30;99.90;;;;;;7338200;19;111447;-88
2023/05/30 08:10:49;;;;;;;;;;;14.50;99.90;;;;;;7340710;19;110459;-87
2023/05/30 08:13:18;;;;;;;;;;;14.60;99.90;;;;;;7341651;19;114905;-86
2023/05/30 08:15:45;;;;;;;;;;;14.70;99.90;;;;;;7339136;19;111896;-88
2023/05/30 08:18:13;;;;;;;;;;;14.80;99.90;;;;;;7336931;19;109825;-88
2023/05/30 08:20:40;;;;;;;;;;;14.90;99.90;;;;;;7340700;19;110594;-87
2023/05/30 08:23:08;;;;;;;;;;;15.10;99.90;;;;;;7336555;19;113640;-87
2023/05/30 08:25:37;;;;;;;;;;;15.10;99.90;;;;;;7337715;19;109657;-87
2023/05/30 08:28:04;;;;;;;;;;;15.00;99.90;;;;;;7337506;19;111905;-87
2023/05/30 08:30:32;;;;;;;;;;;15.10;99.90;;;;;;7336999;19;111813;-88
2023/05/30 08:33:01;;;;;;;;;;;15.10;99.90;;;;;;7337037;19;109670;-86
2023/05/30 08:35:28;;;;;;;;;;;15.10;99.90;;;;;;7341822;19;110470;-87
2023/05/30 08:37:57;;;;;;;;;;;15.20;99.90;;;;;;7339999;19;109392;-87
2023/05/30 08:40:25;;;;;;;;;;;15.40;99.90;;;;;;7338201;19;110125;-88
2023/05/30 08:42:53;;;;;;;;;;;15.40;99.90;;;;;;7337578;19;110229;-87
2023/05/30 08:45:20;;;;;;;;;;;15.50;99.90;;;;;;7336245;19;110228;-88
2023/05/30 08:47:51;;;;;;;;;;;15.40;99.90;;;;;;7336049;19;112435;-88
2023/05/30 08:50:20;;;;;;;;;;;15.50;99.90;;;;;;7337876;19;111528;-88
2023/05/30 08:52:51;;;;;;;;;;;15.40;99.90;;;;;;7334508;19;110308;-87
2023/05/30 08:55:24;;;;;;;;;;;15.40;99.90;;;;;;7338499;19;110044;-87
2023/05/30 08:57:55;;;;;;;;;;;15.50;99.90;;;;;;7340187;19;114459;-87
2023/05/30 09:00:26;;;;;;;;;;;15.70;99.90;;;;;;7337443;19;112436;-86
2023/05/30 09:02:57;;;;;;;;;;;15.60;99.90;;;;;;7341485;19;112128;-88
2023/05/30 09:05:25;;;;;;;;;;;15.80;99.90;;;;;;7337280;19;109842;-87
2023/05/30 09:07:53;;;;;;;;;;;16.10;99.90;;;;;;7339654;19;112658;-88
2023/05/30 09:10:20;;;;;;;;;;;16.20;99.90;;;;;;7337863;19;111384;-88
2023/05/30 09:12:47;;;;;;;;;;;16.30;99.90;;;;;;7337202;19;109856;-87
2023/05/30 09:15:14;;;;;;;;;;;16.50;99.90;;;;;;7332741;19;110644;-88
2023/05/30 09:17:42;;;;;;;;;;;16.40;99.90;;;;;;7338112;19;111448;-88
2023/05/30 09:20:13;;;;;;;;;;;16.30;99.90;;;;;;7341385;19;109760;-87
2023/05/30 09:22:41;;;;;;;;;;;16.30;99.90;;;;;;7339278;19;112057;-87
2023/05/30 09:25:09;;;;;;;;;;;16.40;99.90;;;;;;7337573;19;109674;-88
2023/05/30 09:27:37;;;;;;;;;;;16.50;99.90;;;;;;7335972;19;112915;-87
2023/05/30 09:30:05;;;;;;;;;;;16.60;99.90;;;;;;7334339;19;112286;-88
2023/05/30 09:32:36;;;;;;;;;;;16.80;99.90;;;;;;7335149;19;110369;-88
2023/05/30 09:35:06;;;;;;;;;;;17.00;99.90;;;;;;7332908;19;110192;-70
2023/05/30 09:37:43;;;;;;;;;;;16.80;99.90;;;;;;7337432;19;111119;-67
2023/05/30 09:40:17;;;;;;;;;;;16.90;99.90;;;;;;7335181;19;110288;-69
2023/05/30 09:42:45;;;;;;;;;;;16.80;99.90;;;;;;7339426;19;110203;-66
2023/05/30 09:45:13;;;;;;;;;;;16.80;99.90;;;;;;7334822;19;110024;-73
2023/05/30 09:47:42;;;;;;;;;;;16.80;99.90;;;;;;7332815;19;111015;-73
2023/05/30 09:50:11;;;;;;;;;;;17.00;99.90;;;;;;7332679;19;111200;-71
2023/05/30 09:52:38;;;;;;;;;;;17.20;99.90;;;;;;7330410;19;110187;-71
2023/05/30 09:55:06;;;;;;;;;;;17.40;99.90;;;;;;7332344;19;111381;-68
2023/05/30 09:57:35;;;;;;;;;;;17.30;99.90;;;;;;7332043;19;110649;-73
2023/05/30 10:00:09;;;;;;;;;;;17.20;99.90;;;;;;7332295;19;110744;-72
2023/05/30 10:02:37;;;;;;;;;;;17.40;99.90;;;;;;7333710;19;109464;-73
2023/05/30 10:05:06;;;;;;;;;;;17.50;99.90;;;;;;7343581;19;111097;-71
2023/05/30 10:07:33;;;;;;;;;;;17.60;99.90;;;;;;7338335;19;109856;-73
2023/05/30 10:10:00;;;;;;;;;;;17.50;99.90;;;;;;7337924;19;110431;-68
2023/05/30 10:12:29;;;;;;;;;;;17.50;99.90;;;;;;7339106;19;109886;-69
2023/05/30 10:14:56;;;;;;;;;;;17.40;99.90;;;;;;7336286;19;112208;-69
2023/05/30 10:17:25;;;;;;;;;;;17.30;99.90;;;;;;7336457;19;110092;-75
2023/05/30 10:19:52;;;;;;;;;;;17.40;99.90;;;;;;7339010;19;109868;-74
2023/05/30 10:22:21;;;;;;;;;;;17.40;99.90;;;;;;7339633;19;110491;-69
2023/05/30 10:24:48;;;;;;;;;;;17.50;99.90;;;;;;7344402;19;111179;-72
2023/05/30 10:27:18;;;;;;;;;;;17.60;99.90;;;;;;7335939;19;111415;-75
2023/05/30 10:29:47;;;;;;;;;;;17.70;99.90;;;;;;7339229;19;110561;-74
2023/05/30 10:32:20;;;;;;;;;;;17.90;99.90;;;;;;7337580;19;109560;-77
2023/05/30 10:34:53;;;;;;;;;;;18.00;99.90;;;;;;7338168;19;110443;-75
2023/05/30 10:37:20;;;;;;;;;;;18.20;99.90;;;;;;7336344;19;110539;-69
2023/05/30 10:39:58;;;;;;;;;;;18.30;99.90;;;;;;7337786;19;109713;-70
2023/05/30 10:42:31;;;;;;;;;;;18.30;99.60;;;;;;7339247;19;114122;-70
2023/05/30 10:45:16;;;;;;;;;;;18.30;99.90;;;;;;7336305;19;111567;-68
2023/05/30 10:47:56;;;;;;;;;;;18.40;99.90;;;;;;7342514;19;109893;-70
2023/05/30 10:50:26;;;;;;;;;;;18.50;99.90;;;;;;7335144;19;110085;-66
2023/05/30 10:52:55;;;;;;;;;;;18.70;99.70;;;;;;7336495;19;110046;-68
2023/05/30 10:55:22;;;;;;;;;;;18.60;98.60;;;;;;7337951;19;112481;-69
2023/05/30 10:57:49;;;;;;;;;;;18.70;99.90;;;;;;7334591;19;112762;-67
2023/05/30 11:00:17;;;;;;;;;;;18.90;99.30;;;;;;7336494;19;110041;-67
2023/05/30 11:02:49;;;;;;;;;;;19.00;99.20;;;;;;7333743;19;109757;-68
2023/05/30 11:05:18;;;;;;;;;;;19.10;98.00;;;;;;7333042;19;110497;-68
2023/05/30 11:07:45;;;;;;;;;;;19.00;97.60;;;;;;7333691;19;109895;-66
2023/05/30 11:10:14;;;;;;;;;;;19.10;98.70;;;;;;7336441;19;110044;-68
2023/05/30 11:12:45;;;;;;;;;;;19.20;98.10;;;;;;7333549;19;109880;-68
2023/05/30 11:15:15;;;;;;;;;;;19.20;98.40;;;;;;7328248;19;111525;-70
2023/05/30 11:17:43;;;;;;;;;;;19.20;97.80;;;;;;7334995;19;110743;-68
2023/05/30 11:20:14;;;;;;;;;;;19.20;98.40;;;;;;7331423;19;110787;-67
2023/05/30 11:23:02;;;;;;;;;;;19.40;98.40;;;;;;7335424;19;111336;-67
2023/05/30 11:25:31;;;;;;;;;;;19.40;97.50;;;;;;7338191;19;110714;-66
2023/05/30 11:28:04;;;;;;;;;;;19.60;98.00;;;;;;7331585;19;110585;-66
2023/05/30 11:30:37;;;;;;;;;;;19.80;97.60;;;;;;7337068;19;111063;-67
2023/05/30 11:33:11;;;;;;;;;;;19.80;96.60;;;;;;7336505;19;114469;-67
2023/05/30 11:35:38;;;;;;;;;;;19.70;97.00;;;;;;7333059;19;110285;-66
2023/05/30 11:38:06;;;;;;;;;;;19.80;97.40;;;;;;7330573;19;113790;-66
2023/05/30 11:40:33;;;;;;;;;;;20.10;97.30;;;;;;7336286;19;109619;-67
2023/05/30 11:43:00;;;;;;;;;;;20.20;97.30;;;;;;7330100;19;109758;-66
2023/05/30 11:45:30;;;;;;;;;;;20.30;96.50;;;;;;7334924;19;110118;-67
2023/05/30 11:48:07;;;;;;;;;;;20.30;95.60;;;;;;7330109;19;109980;-67
2023/05/30 11:50:38;;;;;;;;;;;20.30;96.00;;;;;;7334529;19;112133;-67
2023/05/30 11:53:09;;;;;;;;;;;20.30;95.80;;;;;;7335160;19;110191;-66
2023/05/30 11:55:36;;;;;;;;;;;20.40;96.80;;;;;;7341445;19;109417;-67
2023/05/30 11:58:04;;;;;;;;;;;20.50;96.10;;;;;;7333003;19;110151;-69
2023/05/30 12:00:31;;;;;;;;;;;20.60;95.00;;;;;;7334615;19;110617;-67
2023/05/30 12:02:59;;;;;;;;;;;20.50;93.90;;;;;;7334940;19;109830;-66
2023/05/30 12:05:26;;;;;;;;;;;20.50;95.80;;;;;;7332910;19;118360;-67
2023/05/30 12:07:54;;;;;;;;;;;20.70;95.50;;;;;;7335056;19;109927;-67
2023/05/30 12:10:30;;;;;;;;;;;20.90;95.00;;;;;;7332525;19;109863;-67
2023/05/30 12:12:58;;;;;;;;;;;21.00;95.10;;;;;;7335224;19;112588;-67
2023/05/30 12:15:25;;;;;;;;;;;21.30;95.20;;;;;;7333201;19;111699;-67
2023/05/30 12:17:52;;;;;;;;;;;21.50;94.60;;;;;;7337197;19;111115;-67
2023/05/30 12:20:20;;;;;;;;;;;21.60;93.90;;;;;;7334804;19;110166;-66
2023/05/30 12:22:48;;;;;;;;;;;21.50;93.20;;;;;;7332903;19;112287;-66
2023/05/30 12:25:15;;;;;;;;;;;21.40;94.50;;;;;;7332861;19;110846;-66
2023/05/30 12:27:48;;;;;;;;;;;21.60;94.60;;;;;;7327129;19;109972;-67
2023/05/30 12:30:17;;;;;;;;;;;21.70;93.40;;;;;;7327981;19;110922;-66
2023/05/30 12:32:45;;;;;;;;;;;21.80;94.60;;;;;;7331774;19;110988;-67
2023/05/30 12:35:13;;;;;;;;;;;21.90;93.70;;;;;;7330195;19;109912;-67
2023/05/30 12:37:40;;;;;;;;;;;21.80;93.50;;;;;;7339474;19;109815;-67
2023/05/30 12:40:07;;;;;;;;;;;21.60;94.00;;;;;;7331964;19;111375;-68
2023/05/30 12:42:38;;;;;;;;;;;21.70;93.90;;;;;;7332771;19;109742;-68
2023/05/30 12:45:06;;;;;;;;;;;21.90;93.10;;;;;;7331857;19;112443;-67
2023/05/30 12:47:35;;;;;;;;;;;22.00;93.80;;;;;;7333410;19;109864;-67
2023/05/30 12:50:02;;;;;;;;;;;22.10;93.90;;;;;;7332538;19;109891;-67
2023/05/30 12:52:29;;;;;;;;;;;22.30;93.50;;;;;;7331101;19;111404;-69
2023/05/30 12:54:56;;;;;;;;;;;22.30;92.70;;;;;;7333940;19;110289;-70
2023/05/30 12:57:25;;;;;;;;;;;22.40;93.10;;;;;;7330254;19;109381;-70
2023/05/30 12:59:53;;;;;;;;;;;22.50;93.30;;;;;;7338560;19;111089;-70
2023/05/30 13:02:24;;;;;;;;;;;22.50;91.80;;;;;;7331993;19;111362;-70
2023/05/30 13:04:52;;;;;;;;;;;22.50;92.40;;;;;;7328380;19;111452;-70
2023/05/30 13:07:19;;;;;;;;;;;22.70;93.20;;;;;;7329931;19;110573;-70
2023/05/30 13:09:49;;;;;;;;;;;22.80;92.70;;;;;;7328289;19;110178;-70
2023/05/30 13:12:20;;;;;;;;;;;23.00;93.40;;;;;;7326481;19;110992;-70
2023/05/30 13:14:47;;;;;;;;;;;23.30;93.70;;;;;;7324527;19;109865;-70
2023/05/30 13:17:14;;;;;;;;;;;23.30;91.60;;;;;;7328692;19;112731;-70
2023/05/30 13:19:41;;;;;;;;;;;23.30;92.10;;;;;;7329881;19;110732;-70
2023/05/30 13:22:09;;;;;;;;;;;23.30;91.20;;;;;;7333909;19;110825;-70
2023/05/30 13:24:37;;;;;;;;;;;23.50;91.10;;;;;;7328279;19;110304;-70
2023/05/30 13:27:06;;;;;;;;;;;23.40;90.50;;;;;;7331732;19;109960;-69
2023/05/30 13:29:33;;;;;;;;;;;23.10;90.60;;;;;;7330484;19;111718;-69
2023/05/30 13:32:01;;;;;;;;;;;23.10;90.80;;;;;;7332028;19;110727;-70
2023/05/30 13:34:29;;;;;;;;;;;23.10;91.00;;;;;;7330797;19;110041;-70
2023/05/30 13:36:56;;;;;;;;;;;23.40;92.00;;;;;;7334068;19;109872;-70
2023/05/30 13:39:23;;;;;;;;;;;23.40;90.70;;;;;;7328506;19;110136;-71
2023/05/30 13:41:50;;;;;;;;;;;23.50;91.10;;;;;;7325018;19;110082;-71
2023/05/30 13:44:20;;;;;;;;;;;23.40;89.70;;;;;;7333098;19;110681;-71
2023/05/30 13:46:47;;;;;;;;;;;23.30;89.90;;;;;;7331382;19;111499;-71
2023/05/30 13:49:15;;;;;;;;;;;23.30;90.10;;;;;;7326871;19;109159;-72
2023/05/30 13:51:42;;;;;;;;;;;23.60;91.40;;;;;;7330357;19;110109;-68
2023/05/30 13:54:09;;;;;;;;;;;23.90;90.40;;;;;;7326757;19;112172;-68
2023/05/30 13:56:36;;;;;;;;;;;24.00;91.00;;;;;;7330723;19;109577;-72
2023/05/30 13:59:04;;;;;;;;;;;24.10;88.70;;;;;;7330289;19;112023;-73
2023/05/30 14:01:31;;;;;;;;;;;24.10;90.00;;;;;;7331301;19;112151;-72
2023/05/30 14:03:59;;;;;;;;;;;23.90;87.70;;;;;;7330496;19;109964;-72
2023/05/30 14:06:26;;;;;;;;;;;24.10;89.60;;;;;;7338050;19;110638;-72
2023/05/30 14:08:54;;;;;;;;;;;24.40;90.20;;;;;;7331499;19;109733;-72
2023/05/30 14:11:21;;;;;;;;;;;24.50;90.00;;;;;;7331883;19;111105;-72